createdAt,value
2023-04-28T00:00:07.870Z,7.32
2023-04-28T00:02:34.684Z,7.23
2023-04-28T00:05:01.596Z,7.23
2023-04-28T00:07:28.424Z,7.23
2023-04-28T00:09:56.932Z,7.21
2023-04-28T00:12:23.819Z,7.16
2023-04-28T00:14:50.489Z,7.16
2023-04-28T00:17:17.350Z,7.11
2023-04-28T00:19:45.116Z,7.09
2023-04-28T00:22:11.828Z,7.04
2023-04-28T00:24:38.391Z,7.00
2023-04-28T00:27:05.006Z,7.00
2023-04-28T00:29:31.632Z,7.00
2023-04-28T00:31:58.326Z,7.02
2023-04-28T00:34:24.992Z,6.99
2023-04-28T00:36:51.640Z,7.01
2023-04-28T00:39:18.627Z,6.96
2023-04-28T00:41:45.255Z,6.97
2023-04-28T00:44:11.862Z,6.97
2023-04-28T00:46:38.646Z,6.94
2023-04-28T00:49:05.969Z,6.87
2023-04-28T00:51:33.883Z,6.89
2023-04-28T00:54:01.053Z,6.94
2023-04-28T00:56:31.279Z,6.89
2023-04-28T00:58:58.671Z,6.85
2023-04-28T01:01:25.817Z,6.87
2023-04-28T01:03:53.096Z,6.84
2023-04-28T01:06:20.499Z,6.83
2023-04-28T01:08:49.373Z,6.83
2023-04-28T01:11:16.308Z,6.80
2023-04-28T01:13:42.972Z,6.84
2023-04-28T01:16:09.685Z,6.85
2023-04-28T01:18:36.634Z,6.88
2023-04-28T01:21:04.563Z,6.90
2023-04-28T01:23:31.294Z,6.86
2023-04-28T01:25:58.421Z,6.82
2023-04-28T01:28:25.084Z,6.81
2023-04-28T01:30:51.896Z,6.84
2023-04-28T01:33:18.555Z,6.82
2023-04-28T01:35:45.146Z,6.81
2023-04-28T01:38:11.899Z,6.82
2023-04-28T01:40:38.634Z,6.77
2023-04-28T01:43:05.335Z,6.78
2023-04-28T01:45:31.952Z,6.79
2023-04-28T01:47:58.640Z,6.74
2023-04-28T01:50:25.441Z,6.79
2023-04-28T01:52:52.072Z,6.71
2023-04-28T01:55:18.713Z,6.72
2023-04-28T01:57:45.446Z,6.66
2023-04-28T02:00:12.300Z,6.68
2023-04-28T02:02:39.024Z,6.69
2023-04-28T02:05:06.333Z,6.74
2023-04-28T02:07:33.036Z,6.76
2023-04-28T02:09:59.703Z,6.73
2023-04-28T02:12:26.352Z,6.73
2023-04-28T02:14:53.285Z,6.77
2023-04-28T02:17:19.932Z,6.75
2023-04-28T02:19:46.654Z,6.77
2023-04-28T02:22:13.321Z,6.79
2023-04-28T02:24:40.010Z,6.73
2023-04-28T02:27:06.654Z,6.73
2023-04-28T02:29:33.294Z,6.74
2023-04-28T02:32:00.170Z,6.73
2023-04-28T02:34:26.972Z,6.68
2023-04-28T02:36:53.694Z,6.67
2023-04-28T02:39:22.076Z,6.68
2023-04-28T02:41:48.739Z,6.69
2023-04-28T02:44:15.911Z,6.74
2023-04-28T02:46:42.765Z,6.69
2023-04-28T02:49:09.463Z,6.62
2023-04-28T02:51:36.216Z,6.67
2023-04-28T02:54:02.976Z,6.66
2023-04-28T02:56:33.080Z,6.66
2023-04-28T02:58:59.730Z,6.62
2023-04-28T03:01:26.908Z,6.65
2023-04-28T03:03:53.876Z,6.72
2023-04-28T03:06:20.540Z,6.66
2023-04-28T03:08:47.260Z,6.59
2023-04-28T03:11:13.882Z,6.54
2023-04-28T03:13:40.598Z,6.46
2023-04-28T03:16:08.089Z,6.42
2023-04-28T03:18:35.011Z,6.47
2023-04-28T03:21:01.720Z,6.50
2023-04-28T03:23:28.460Z,6.59
2023-04-28T03:25:55.108Z,6.45
2023-04-28T03:28:22.053Z,6.46
2023-04-28T03:30:48.725Z,6.47
2023-04-28T03:33:15.457Z,6.50
2023-04-28T03:35:42.037Z,6.51
2023-04-28T03:38:08.677Z,6.45
2023-04-28T03:40:35.583Z,6.53
2023-04-28T03:43:03.971Z,6.56
2023-04-28T03:45:31.646Z,6.56
2023-04-28T03:47:58.393Z,6.55
2023-04-28T03:50:26.699Z,6.59
2023-04-28T03:52:53.694Z,6.55
2023-04-28T03:55:20.369Z,6.55
2023-04-28T03:57:47.020Z,6.52
2023-04-28T04:00:14.109Z,6.53
2023-04-28T04:02:40.896Z,6.52
2023-04-28T04:05:08.046Z,6.50
2023-04-28T04:07:34.908Z,6.46
2023-04-28T04:10:03.899Z,6.41
2023-04-28T04:12:31.252Z,6.44
2023-04-28T04:14:57.877Z,6.41
2023-04-28T04:17:24.620Z,6.44
2023-04-28T04:19:51.318Z,6.43
2023-04-28T04:22:18.019Z,6.45
2023-04-28T04:24:44.736Z,6.46
2023-04-28T04:27:11.398Z,6.46
2023-04-28T04:29:43.362Z,6.46
2023-04-28T04:32:09.966Z,6.43
2023-04-28T04:34:36.791Z,6.44
2023-04-28T04:37:03.385Z,6.40
2023-04-28T04:39:30.099Z,6.37
2023-04-28T04:41:56.701Z,6.39
2023-04-28T04:44:23.362Z,6.42
2023-04-28T04:46:50.016Z,6.43
2023-04-28T04:49:17.345Z,6.40
2023-04-28T04:51:44.004Z,6.40
2023-04-28T04:54:10.600Z,6.44
2023-04-28T04:56:37.568Z,6.46
2023-04-28T04:59:04.185Z,6.44
2023-04-28T05:01:31.062Z,6.36
2023-04-28T05:03:57.852Z,6.42
2023-04-28T05:06:24.698Z,6.39
2023-04-28T05:08:51.275Z,6.42
2023-04-28T05:11:18.052Z,6.50
2023-04-28T05:13:44.706Z,6.42
2023-04-28T05:16:11.369Z,6.41
2023-04-28T05:18:38.046Z,6.34
2023-04-28T05:21:04.743Z,6.41
2023-04-28T05:23:31.359Z,6.45
2023-04-28T05:25:58.084Z,6.48
2023-04-28T05:28:24.761Z,6.43
2023-04-28T05:30:51.485Z,6.38
2023-04-28T05:33:18.051Z,6.46
2023-04-28T05:35:44.740Z,6.47
2023-04-28T05:38:14.489Z,6.51
2023-04-28T05:40:41.172Z,6.44
2023-04-28T05:43:07.843Z,6.45
2023-04-28T05:45:35.220Z,6.37
2023-04-28T05:48:05.272Z,6.39
2023-04-28T05:50:32.431Z,6.45
2023-04-28T05:52:59.395Z,6.39
2023-04-28T05:55:26.976Z,6.43
2023-04-28T05:57:54.538Z,6.47
2023-04-28T06:00:22.261Z,6.48
2023-04-28T06:02:49.281Z,6.46
2023-04-28T06:05:16.669Z,6.32
2023-04-28T06:07:43.675Z,6.33
2023-04-28T06:10:10.956Z,6.39
2023-04-28T06:12:37.656Z,6.48
2023-04-28T06:15:05.566Z,6.52
2023-04-28T06:17:33.497Z,6.50
2023-04-28T06:20:00.511Z,6.52
2023-04-28T06:22:27.243Z,6.64
2023-04-28T06:24:53.983Z,6.70
2023-04-28T06:27:20.684Z,6.73
2023-04-28T06:29:47.252Z,6.80
2023-04-28T06:32:13.981Z,6.82
2023-04-28T06:34:40.654Z,6.83
2023-04-28T06:37:07.271Z,6.76
2023-04-28T06:39:33.896Z,6.87
2023-04-28T06:42:02.401Z,6.90
2023-04-28T06:44:29.036Z,6.93
2023-04-28T06:46:55.804Z,6.89
2023-04-28T06:49:22.468Z,6.79
2023-04-28T06:51:49.052Z,6.93
2023-04-28T06:54:16.852Z,7.03
2023-04-28T06:56:43.846Z,7.10
2023-04-28T06:59:10.491Z,7.00
2023-04-28T07:01:37.378Z,7.13
2023-04-28T07:04:04.320Z,7.22
2023-04-28T07:06:32.503Z,7.29
2023-04-28T07:08:59.204Z,7.34
2023-04-28T07:11:25.896Z,7.36
2023-04-28T07:13:52.486Z,7.44
2023-04-28T07:16:19.313Z,7.46
2023-04-28T07:18:46.261Z,7.54
2023-04-28T07:21:13.034Z,7.66
2023-04-28T07:23:42.549Z,7.74
2023-04-28T07:26:11.485Z,7.76
2023-04-28T07:29:02.822Z,7.81
2023-04-28T07:31:30.468Z,7.81
2023-04-28T07:33:57.178Z,7.70
2023-04-28T07:36:23.956Z,7.62
2023-04-28T07:38:51.244Z,7.68
2023-04-28T07:41:19.037Z,7.63
2023-04-28T07:43:45.989Z,7.59
2023-04-28T07:46:13.287Z,7.71
2023-04-28T07:48:40.020Z,7.74
2023-04-28T07:51:07.302Z,7.78
2023-04-28T07:53:34.378Z,7.76
2023-04-28T07:56:01.733Z,7.60
2023-04-28T07:58:28.636Z,7.66
2023-04-28T08:00:55.494Z,7.76
2023-04-28T08:03:22.626Z,7.78
2023-04-28T08:05:49.602Z,7.64
2023-04-28T08:08:16.222Z,7.67
2023-04-28T08:10:43.927Z,7.78
2023-04-28T08:13:10.817Z,7.83
2023-04-28T08:15:37.587Z,7.89
2023-04-28T08:18:04.491Z,7.82
2023-04-28T08:20:32.711Z,7.72
2023-04-28T08:22:59.432Z,7.71
2023-04-28T08:25:26.377Z,7.74
2023-04-28T08:27:54.445Z,7.83
2023-04-28T08:30:22.305Z,7.69
2023-04-28T08:32:49.083Z,7.93
2023-04-28T08:35:16.015Z,7.81
2023-04-28T08:37:43.075Z,8.01
2023-04-28T08:40:10.399Z,8.12
2023-04-28T08:42:38.265Z,8.30
2023-04-28T08:45:06.284Z,8.44
2023-04-28T08:47:38.482Z,8.55
2023-04-28T08:50:08.077Z,8.66
2023-04-28T08:52:36.265Z,8.76
2023-04-28T08:55:13.131Z,8.78
2023-04-28T08:57:43.146Z,8.76
2023-04-28T09:00:11.191Z,8.81
2023-04-28T09:02:38.586Z,8.88
2023-04-28T09:05:08.540Z,8.94
2023-04-28T09:07:36.563Z,9.00
2023-04-28T09:10:22.564Z,8.75
2023-04-28T09:12:52.656Z,8.74
2023-04-28T09:15:45.694Z,8.64
2023-04-28T09:18:15.651Z,8.64
2023-04-28T09:20:42.497Z,8.70
2023-04-28T09:23:22.779Z,8.74
2023-04-28T09:25:59.860Z,8.59
2023-04-28T09:28:26.566Z,8.73
2023-04-28T09:30:54.740Z,8.80
2023-04-28T09:33:22.482Z,8.88
2023-04-28T09:35:49.341Z,8.96
2023-04-28T09:38:17.105Z,9.01
2023-04-28T09:41:01.164Z,8.82
2023-04-28T09:43:27.903Z,8.94
2023-04-28T09:45:56.194Z,8.86
2023-04-28T09:48:31.991Z,8.99
2023-04-28T09:51:09.105Z,9.07
2023-04-28T09:53:36.617Z,9.09
2023-04-28T09:56:05.384Z,9.10
2023-04-28T09:58:35.356Z,9.11
2023-04-28T10:01:02.371Z,9.10
2023-04-28T10:03:30.952Z,9.12
2023-04-28T10:06:21.049Z,9.08
2023-04-28T10:08:51.262Z,9.10
2023-04-28T10:11:18.118Z,9.13
2023-04-28T10:13:45.670Z,9.21
2023-04-28T10:16:14.534Z,9.23
2023-04-28T10:18:42.208Z,9.19
2023-04-28T10:21:09.585Z,9.27
2023-04-28T10:23:58.023Z,9.32
2023-04-28T10:26:36.560Z,9.36
2023-04-28T10:29:04.073Z,9.43
2023-04-28T10:31:30.734Z,9.49
2023-04-28T10:34:22.155Z,9.48
2023-04-28T10:36:51.055Z,9.46
2023-04-28T10:39:18.009Z,9.47
2023-04-28T10:41:49.230Z,9.48
2023-04-28T10:44:31.552Z,9.56
2023-04-28T10:47:05.184Z,9.69
2023-04-28T10:50:01.113Z,9.83
2023-04-28T10:52:33.576Z,9.87
2023-04-28T10:55:27.193Z,9.94
2023-04-28T10:58:17.531Z,9.96
2023-04-28T11:00:48.401Z,10.00
2023-04-28T11:03:49.837Z,9.98
2023-04-28T11:06:27.270Z,10.07
2023-04-28T11:08:56.537Z,10.21
2023-04-28T11:11:26.013Z,10.42
2023-04-28T11:13:54.325Z,10.59
2023-04-28T11:16:23.690Z,10.75
2023-04-28T11:21:16.918Z,10.64
2023-04-28T11:23:44.450Z,10.83
2023-04-28T11:26:11.241Z,10.96
2023-04-28T11:28:51.022Z,11.02
2023-04-28T11:31:22.478Z,11.13
2023-04-28T11:33:55.745Z,10.85
2023-04-28T11:36:43.936Z,11.07
2023-04-28T11:39:12.692Z,11.23
2023-04-28T11:41:44.830Z,11.10
2023-04-28T11:44:16.443Z,11.17
2023-04-28T11:46:50.971Z,11.44
2023-04-28T11:49:18.927Z,11.59
2023-04-28T11:51:48.628Z,11.75
2023-04-28T11:54:29.186Z,11.93
2023-04-28T11:56:57.596Z,12.09
2023-04-28T11:59:51.307Z,12.01
2023-04-28T12:02:28.362Z,12.16
2023-04-28T12:04:55.396Z,12.26
2023-04-28T12:07:22.235Z,12.39
2023-04-28T12:10:16.786Z,12.50
2023-04-28T12:12:50.797Z,12.61
2023-04-28T12:15:20.110Z,12.56
2023-04-28T12:17:47.489Z,12.52
2023-04-28T12:20:35.506Z,12.56
2023-04-28T12:23:02.901Z,12.73
2023-04-28T12:25:29.815Z,12.87
2023-04-28T12:28:04.769Z,12.66
2023-04-28T12:30:38.905Z,12.79
2023-04-28T12:33:06.048Z,12.82
2023-04-28T12:35:33.287Z,12.87
2023-04-28T12:38:00.357Z,12.93
2023-04-28T12:40:27.210Z,12.77
2023-04-28T12:42:54.175Z,13.03
2023-04-28T12:45:20.936Z,13.18
2023-04-28T12:47:48.385Z,13.29
2023-04-28T12:50:15.307Z,13.01
2023-04-28T12:52:41.909Z,13.23
2023-04-28T12:55:08.933Z,13.30
2023-04-28T12:57:38.983Z,13.38
2023-04-28T13:00:07.642Z,13.40
2023-04-28T13:02:35.080Z,13.43
2023-04-28T13:05:02.114Z,13.64
2023-04-28T13:07:30.296Z,13.56
2023-04-28T13:09:57.384Z,13.45
2023-04-28T13:12:24.244Z,13.10
2023-04-28T13:14:51.146Z,13.10
2023-04-28T13:17:18.016Z,13.14
2023-04-28T13:19:45.068Z,13.50
2023-04-28T13:22:12.437Z,13.79
2023-04-28T13:24:39.038Z,13.33
2023-04-28T13:27:09.708Z,13.22
2023-04-28T13:29:36.992Z,13.54
2023-04-28T13:32:05.548Z,13.43
2023-04-28T13:34:32.847Z,13.44
2023-04-28T13:36:59.605Z,13.33
2023-04-28T13:39:26.188Z,13.60
2023-04-28T13:41:52.934Z,13.94
2023-04-28T13:44:19.544Z,14.15
2023-04-28T13:46:46.308Z,14.16
2023-04-28T13:49:13.251Z,13.57
2023-04-28T13:51:40.012Z,14.07
2023-04-28T13:54:13.274Z,14.22
2023-04-28T13:56:40.062Z,14.14
2023-04-28T13:59:07.358Z,14.11
2023-04-28T14:01:34.035Z,14.45
2023-04-28T14:04:01.141Z,14.54
2023-04-28T14:06:28.035Z,14.52
2023-04-28T14:08:54.733Z,14.32
2023-04-28T14:11:21.550Z,14.47
2023-04-28T14:13:48.213Z,14.23
2023-04-28T14:16:14.880Z,14.14
2023-04-28T14:18:41.707Z,14.16
2023-04-28T14:21:08.664Z,14.13
2023-04-28T14:23:35.670Z,14.08
2023-04-28T14:26:02.686Z,14.02
2023-04-28T14:28:29.587Z,14.00
2023-04-28T14:30:56.668Z,13.96
2023-04-28T14:33:23.519Z,14.04
2023-04-28T14:35:50.129Z,13.77
2023-04-28T14:38:16.795Z,13.76
2023-04-28T14:40:43.434Z,13.59
2023-04-28T14:43:11.357Z,13.80
2023-04-28T14:45:40.964Z,13.79
2023-04-28T14:48:08.049Z,13.75
2023-04-28T14:50:35.101Z,13.55
2023-04-28T14:53:05.677Z,13.69
2023-04-28T14:55:33.184Z,13.79
2023-04-28T14:57:59.785Z,13.97
2023-04-28T15:00:26.459Z,13.67
2023-04-28T15:02:53.365Z,13.70
2023-04-28T15:05:20.155Z,13.91
2023-04-28T15:07:46.897Z,13.93
2023-04-28T15:10:13.544Z,14.01
2023-04-28T15:12:40.185Z,14.21
2023-04-28T15:15:07.947Z,14.16
2023-04-28T15:17:34.680Z,14.10
2023-04-28T15:20:01.536Z,14.10
2023-04-28T15:22:28.118Z,14.04
2023-04-28T15:24:55.957Z,14.11
2023-04-28T15:27:23.226Z,13.98
2023-04-28T15:29:50.531Z,13.78
2023-04-28T15:32:17.558Z,13.77
2023-04-28T15:34:44.315Z,13.75
2023-04-28T15:37:29.823Z,13.78
2023-04-28T15:39:56.547Z,13.90
2023-04-28T15:42:23.187Z,13.74
2023-04-28T15:44:50.434Z,13.76
2023-04-28T15:47:17.674Z,13.78
2023-04-28T15:49:44.302Z,13.79
2023-04-28T15:52:11.429Z,13.68
2023-04-28T15:54:39.583Z,13.74
2023-04-28T15:57:06.533Z,13.75
2023-04-28T15:59:33.541Z,13.75
2023-04-28T16:02:00.259Z,13.75
2023-04-28T16:04:27.007Z,13.55
2023-04-28T16:06:55.435Z,13.49
2023-04-28T16:09:22.075Z,13.67
2023-04-28T16:11:48.707Z,13.73
2023-04-28T16:14:15.591Z,13.68
2023-04-28T16:16:42.384Z,13.69
2023-04-28T16:19:10.004Z,13.63
2023-04-28T16:21:36.758Z,13.80
2023-04-28T16:24:04.512Z,13.70
2023-04-28T16:26:31.256Z,13.73
2023-04-28T16:28:57.796Z,13.85
2023-04-28T16:31:24.443Z,13.79
2023-04-28T16:33:51.149Z,13.65
2023-04-28T16:36:17.896Z,13.70
2023-04-28T16:38:46.568Z,13.56
2023-04-28T16:41:13.355Z,13.32
2023-04-28T16:43:39.997Z,13.50
2023-04-28T16:46:07.566Z,13.46
2023-04-28T16:48:34.330Z,13.62
2023-04-28T16:51:01.140Z,13.67
2023-04-28T16:53:27.741Z,13.72
2023-04-28T16:55:54.339Z,13.88
2023-04-28T16:58:21.172Z,14.00
2023-04-28T17:00:48.088Z,14.10
2023-04-28T17:03:14.714Z,13.99
2023-04-28T17:05:41.547Z,14.02
2023-04-28T17:08:08.156Z,13.92
2023-04-28T17:10:38.003Z,13.96
2023-04-28T17:13:04.944Z,13.85
2023-04-28T17:15:31.641Z,13.91
2023-04-28T17:17:58.299Z,13.92
2023-04-28T17:20:25.011Z,13.94
2023-04-28T17:22:52.832Z,13.80
2023-04-28T17:25:22.407Z,13.73
2023-04-28T17:27:49.243Z,13.79
2023-04-28T17:30:16.177Z,13.68
2023-04-28T17:32:42.825Z,13.74
2023-04-28T17:35:09.494Z,13.83
2023-04-28T17:37:37.237Z,13.81
2023-04-28T17:40:04.723Z,13.73
2023-04-28T17:42:31.935Z,13.58
2023-04-28T17:44:58.855Z,13.57
2023-04-28T17:47:25.649Z,13.67
2023-04-28T17:49:52.436Z,13.69
2023-04-28T17:52:19.143Z,13.60
2023-04-28T17:54:45.849Z,13.59
2023-04-28T17:57:13.206Z,13.55
2023-04-28T17:59:40.717Z,13.47
2023-04-28T18:02:11.578Z,13.44
2023-04-28T18:04:38.691Z,13.43
2023-04-28T18:07:07.841Z,13.46
2023-04-28T18:09:34.472Z,13.37
2023-04-28T18:12:03.177Z,13.26
2023-04-28T18:14:30.318Z,13.15
2023-04-28T18:16:57.732Z,13.13
2023-04-28T18:19:27.557Z,13.14
2023-04-28T18:21:58.171Z,12.97
2023-04-28T18:24:24.936Z,12.93
2023-04-28T18:26:51.608Z,12.85
2023-04-28T18:29:21.268Z,12.61
2023-04-28T18:31:48.065Z,12.58
2023-04-28T18:34:14.739Z,12.67
2023-04-28T18:36:41.347Z,12.58
2023-04-28T18:39:11.302Z,12.50
2023-04-28T18:41:39.486Z,12.50
2023-04-28T18:44:06.292Z,12.53
2023-04-28T18:46:33.736Z,12.56
2023-04-28T18:49:00.370Z,12.59
2023-04-28T18:51:27.122Z,12.59
2023-04-28T18:53:53.718Z,12.59
2023-04-28T18:56:21.900Z,12.54
2023-04-28T18:58:48.533Z,12.55
2023-04-28T19:01:18.378Z,12.56
2023-04-28T19:03:45.280Z,12.54
2023-04-28T19:06:12.131Z,12.43
2023-04-28T19:08:39.398Z,12.43
2023-04-28T19:11:09.640Z,12.43
2023-04-28T19:13:37.612Z,12.44
2023-04-28T19:16:05.048Z,12.43
2023-04-28T19:18:33.195Z,12.41
2023-04-28T19:21:04.743Z,12.35
2023-04-28T19:23:32.723Z,12.37
2023-04-28T19:25:59.972Z,12.40
2023-04-28T19:28:26.832Z,12.38
2023-04-28T19:30:54.623Z,12.32
2023-04-28T19:33:28.003Z,12.28
2023-04-28T19:35:55.206Z,12.32
2023-04-28T19:38:23.338Z,12.23
2023-04-28T19:40:51.019Z,12.15
2023-04-28T19:43:18.141Z,12.13
2023-04-28T19:45:46.643Z,12.13
2023-04-28T19:48:14.601Z,12.10
2023-04-28T19:50:42.129Z,12.08
2023-04-28T19:53:09.437Z,12.16
2023-04-28T19:55:36.894Z,12.15
2023-04-28T19:58:04.053Z,12.15
2023-04-28T20:00:32.475Z,12.11
2023-04-28T20:03:00.004Z,12.08
2023-04-28T20:05:27.033Z,12.06
2023-04-28T20:07:56.103Z,12.10
2023-04-28T20:10:23.428Z,12.05
2023-04-28T20:12:50.038Z,12.00
2023-04-28T20:15:18.489Z,12.00
2023-04-28T20:17:46.097Z,12.03
2023-04-28T20:20:12.979Z,11.98
2023-04-28T20:22:41.176Z,11.92
2023-04-28T20:25:10.493Z,11.89
2023-04-28T20:27:37.524Z,11.91
2023-04-28T20:30:04.953Z,11.89
2023-04-28T20:32:31.644Z,11.87
2023-04-28T20:34:58.304Z,11.87
2023-04-28T20:37:26.500Z,11.85
2023-04-28T20:39:53.552Z,11.82
2023-04-28T20:42:20.300Z,11.78
2023-04-28T20:44:46.956Z,11.80
2023-04-28T20:47:14.025Z,11.78
2023-04-28T20:49:40.687Z,11.75
2023-04-28T20:52:07.488Z,11.78
2023-04-28T20:54:36.134Z,11.77
2023-04-28T20:57:04.726Z,11.76
2023-04-28T20:59:32.752Z,11.74
2023-04-28T21:02:00.012Z,11.78
2023-04-28T21:04:28.232Z,11.81
2023-04-28T21:06:55.641Z,11.80
2023-04-28T21:09:25.244Z,11.80
2023-04-28T21:11:52.489Z,11.78
2023-04-28T21:14:19.252Z,11.82
2023-04-28T21:16:46.039Z,11.79
2023-04-28T21:19:12.933Z,11.76
2023-04-28T21:21:39.555Z,11.77
2023-04-28T21:24:08.031Z,11.76
2023-04-28T21:26:35.898Z,11.74
2023-04-28T21:29:03.204Z,11.73
2023-04-28T21:31:30.716Z,11.72
2023-04-28T21:33:57.631Z,11.79
2023-04-28T21:36:24.387Z,11.82
2023-04-28T21:38:51.014Z,11.80
2023-04-28T21:41:17.689Z,11.81
2023-04-28T21:43:44.406Z,11.85
2023-04-28T21:46:11.441Z,11.94
2023-04-28T21:48:38.601Z,11.96
2023-04-28T21:51:05.413Z,11.96
2023-04-28T21:53:32.109Z,11.98
2023-04-28T21:55:58.767Z,11.95
2023-04-28T21:58:25.466Z,11.92
2023-04-28T22:00:52.418Z,11.92
2023-04-28T22:03:19.886Z,11.86
2023-04-28T22:05:47.016Z,11.83
2023-04-28T22:08:14.278Z,11.83
2023-04-28T22:10:40.988Z,11.82
2023-04-28T22:13:07.706Z,11.78
2023-04-28T22:15:34.455Z,11.79
2023-04-28T22:18:01.220Z,11.77
2023-04-28T22:20:28.047Z,11.76
2023-04-28T22:22:54.761Z,11.77
2023-04-28T22:25:21.609Z,11.77
2023-04-28T22:27:48.355Z,11.81
2023-04-28T22:30:15.666Z,11.83
2023-04-28T22:32:47.272Z,11.83
2023-04-28T22:35:14.753Z,11.86
2023-04-28T22:37:41.403Z,11.85
2023-04-28T22:40:08.947Z,11.87
2023-04-28T22:42:40.039Z,11.86
2023-04-28T22:45:07.198Z,11.85
2023-04-28T22:47:34.624Z,11.87
2023-04-28T22:50:04.061Z,11.88
2023-04-28T22:52:32.331Z,11.83
2023-04-28T22:54:59.062Z,11.80
2023-04-28T22:57:25.986Z,11.80
2023-04-28T22:59:52.953Z,11.80
2023-04-28T23:02:20.465Z,11.83
2023-04-28T23:04:47.123Z,11.84
2023-04-28T23:07:13.764Z,11.82
2023-04-28T23:09:40.406Z,11.81
2023-04-28T23:12:07.365Z,11.82
2023-04-28T23:14:34.368Z,11.82
2023-04-28T23:17:00.970Z,11.85
2023-04-28T23:19:27.646Z,11.86
2023-04-28T23:21:54.514Z,11.82
2023-04-28T23:24:21.098Z,11.80
2023-04-28T23:26:47.814Z,11.75
2023-04-28T23:29:14.576Z,11.67
2023-04-28T23:31:41.341Z,11.61
2023-04-28T23:34:09.038Z,11.55
2023-04-28T23:36:36.467Z,11.51
2023-04-28T23:39:03.158Z,11.47
2023-04-28T23:41:29.817Z,11.49
2023-04-28T23:43:56.758Z,11.38
2023-04-28T23:46:23.552Z,11.35
2023-04-28T23:48:50.164Z,11.30
2023-04-28T23:51:16.813Z,11.26
2023-04-28T23:53:43.636Z,11.20
2023-04-28T23:56:10.253Z,11.15
2023-04-28T23:58:37.761Z,11.15
